Time;durP1;ratioP1;P1;durP2;ratioP2;P2;SDS_P1;SDS_P2;PMS_P1;PMS_P2;Temp;Humidity;BMP_temperature;BMP_pressure;BME280_temperature;BME280_humidity;BME280_pressure;Samples;Min_cycle;Max_cycle;Signal;HPM_P1;HPM_P2
2021/12/30 00:01:47;;;;;;;2.13;0.70;;;;;;;0.90;91.20;97447.38;6241369;28;20730;-71
2021/12/30 00:04:49;;;;;;;0.70;0.70;;;;;;;0.95;91.61;97461.00;6228702;28;20596;-71
2021/12/30 00:07:52;;;;;;;1.20;1.10;;;;;;;0.96;91.77;97462.69;6226933;28;20866;-72
2021/12/30 00:10:56;;;;;;;1.37;0.83;;;;;;;0.96;91.26;97455.75;6241328;28;20555;-71
2021/12/30 00:13:58;;;;;;;2.10;0.90;;;;;;;1.01;91.57;97456.34;6255958;28;20238;-71
2021/12/30 00:17:01;;;;;;;2.13;1.00;;;;;;;1.06;91.11;97463.94;6251813;28;20226;-72
2021/12/30 00:20:05;;;;;;;1.77;0.90;;;;;;;1.13;91.02;97464.50;6254443;28;20227;-72
2021/12/30 00:23:09;;;;;;;1.10;0.70;;;;;;;1.17;91.12;97466.06;6252984;28;20231;-72
2021/12/30 00:26:12;;;;;;;2.03;1.20;;;;;;;1.22;91.39;97454.53;6253606;28;20694;-72
2021/12/30 00:29:14;;;;;;;3.00;0.87;;;;;;;1.29;91.46;97465.50;6253107;28;20227;-72
2021/12/30 00:32:16;;;;;;;2.63;1.20;;;;;;;1.36;91.54;97475.53;6251732;28;20238;-71
2021/12/30 00:35:18;;;;;;;1.03;0.80;;;;;;;1.42;91.67;97466.59;6223733;28;20231;-72
2021/12/30 00:38:21;;;;;;;2.10;0.97;;;;;;;1.46;91.46;97468.97;6242125;28;20640;-72
2021/12/30 00:41:22;;;;;;;2.83;0.90;;;;;;;1.52;91.44;97472.19;6253749;28;20238;-72
2021/12/30 00:44:25;;;;;;;1.73;1.10;;;;;;;1.58;91.44;97464.13;6251196;28;20752;-72
2021/12/30 00:47:27;;;;;;;2.07;0.93;;;;;;;1.64;91.59;97466.41;6243724;28;20222;-72
2021/12/30 00:50:30;;;;;;;5.17;1.10;;;;;;;1.71;91.36;97486.00;6228571;28;20726;-72
2021/12/30 00:53:33;;;;;;;2.57;0.93;;;;;;;1.79;91.68;97484.75;6252565;28;20232;-72
2021/12/30 00:56:35;;;;;;;4.00;0.97;;;;;;;1.82;91.71;97492.38;6252317;28;20268;-72
2021/12/30 00:59:37;;;;;;;1.93;0.90;;;;;;;1.90;91.60;97483.38;6251331;28;20272;-72
2021/12/30 01:02:39;;;;;;;2.30;0.93;;;;;;;1.98;91.58;97483.84;6251333;28;20721;-72
2021/12/30 01:05:43;;;;;;;2.30;1.00;;;;;;;2.03;91.57;97490.47;6238818;28;20229;-72
2021/12/30 01:08:45;;;;;;;2.57;1.00;;;;;;;2.07;91.50;97491.19;6252421;28;20716;-72
2021/12/30 01:11:47;;;;;;;0.87;0.80;;;;;;;2.11;91.53;97492.69;6251967;28;20269;-72
2021/12/30 01:14:49;;;;;;;1.00;0.90;;;;;;;2.13;91.55;97496.06;6255918;28;20242;-72
2021/12/30 01:18:09;;;;;;;1.97;0.90;;;;;;;2.14;91.64;97492.56;6257277;28;20663;-72
2021/12/30 01:21:13;;;;;;;3.07;1.00;;;;;;;2.17;91.86;97497.63;6257429;28;20231;-71
2021/12/30 01:24:15;;;;;;;3.37;1.30;;;;;;;2.21;91.73;97505.19;6257449;28;20700;-72
2021/12/30 01:27:17;;;;;;;2.10;1.40;;;;;;;2.27;91.97;97513.63;6257910;28;20716;-72
2021/12/30 01:30:20;;;;;;;1.77;0.90;;;;;;;2.30;91.94;97514.28;6239121;28;20217;-71
2021/12/30 01:33:22;;;;;;;2.23;0.87;;;;;;;2.34;91.86;97518.44;6241611;28;20225;-71
2021/12/30 01:36:26;;;;;;;0.87;0.80;;;;;;;2.37;91.90;97514.84;6214502;28;20608;-71
2021/12/30 01:39:30;;;;;;;4.13;0.90;;;;;;;2.43;91.80;97520.59;6235764;28;20861;-73
2021/12/30 01:42:33;;;;;;;0.80;0.80;;;;;;;2.48;92.18;97521.22;6238361;28;20698;-72
2021/12/30 01:45:35;;;;;;;1.37;1.00;;;;;;;2.51;91.73;97510.63;6254934;28;20732;-72
2021/12/30 01:48:37;;;;;;;1.07;0.97;;;;;;;2.55;92.28;97506.09;6240345;28;20598;-72
2021/12/30 01:51:41;;;;;;;3.47;1.00;;;;;;;2.57;91.92;97504.25;6250444;28;20314;-72
2021/12/30 01:54:43;;;;;;;1.27;0.90;;;;;;;2.58;91.61;97501.59;6255555;28;20286;-72
2021/12/30 01:57:49;;;;;;;1.47;0.70;;;;;;;2.61;91.98;97490.16;6254551;28;20602;-72
2021/12/30 02:00:51;;;;;;;2.00;0.70;;;;;;;2.63;91.77;97492.69;6256324;28;20310;-72
2021/12/30 02:03:54;;;;;;;4.43;1.17;;;;;;;2.64;92.01;97490.00;6254653;28;20225;-72
2021/12/30 02:07:00;;;;;;;1.20;0.80;;;;;;;2.66;91.95;97502.94;6239587;28;20622;-71
2021/12/30 02:10:04;;;;;;;1.23;0.70;;;;;;;2.66;92.12;97500.34;6255553;28;20817;-71
2021/12/30 02:13:08;;;;;;;1.33;0.80;;;;;;;2.68;91.99;97499.34;6255390;28;20234;-72
2021/12/30 02:16:10;;;;;;;3.67;1.67;;;;;;;2.70;91.97;97499.25;6255699;28;20275;-72
2021/12/30 02:19:12;;;;;;;0.80;0.60;;;;;;;2.70;92.33;97491.44;6255072;28;20672;-72
2021/12/30 02:22:15;;;;;;;3.43;0.80;;;;;;;2.68;92.14;97498.50;6256499;28;20239;-72
2021/12/30 02:25:17;;;;;;;1.50;0.80;;;;;;;2.68;92.13;97499.34;6253553;28;20273;-72
2021/12/30 02:28:23;;;;;;;2.07;0.73;;;;;;;2.68;92.14;97488.09;6255900;28;20224;-72
2021/12/30 02:31:28;;;;;;;1.57;0.90;;;;;;;2.67;92.13;97491.59;6256295;28;20705;-72
2021/12/30 02:34:30;;;;;;;1.63;0.80;;;;;;;2.65;91.84;97488.22;6227944;28;20248;-73
2021/12/30 02:37:32;;;;;;;2.33;0.90;;;;;;;2.62;92.17;97486.63;6229952;28;20241;-72
2021/12/30 02:40:49;;;;;;;1.50;0.60;;;;;;;2.59;91.90;97497.22;6256905;28;20232;-72
2021/12/30 02:43:51;;;;;;;2.33;0.87;;;;;;;2.59;92.16;97503.28;6254895;28;20307;-72
2021/12/30 02:46:54;;;;;;;0.40;0.40;;;;;;;2.63;92.25;97505.69;6253524;28;20222;-72
2021/12/30 02:49:57;;;;;;;5.03;0.93;;;;;;;2.62;92.39;97504.00;6232173;28;20237;-72
2021/12/30 02:52:59;;;;;;;0.73;0.63;;;;;;;2.60;92.31;97497.13;6229119;28;20233;-72
2021/12/30 02:56:02;;;;;;;2.20;1.00;;;;;;;2.60;92.06;97497.13;6241300;28;20718;-72
2021/12/30 02:59:04;;;;;;;1.10;0.70;;;;;;;2.61;92.50;97505.78;6253412;28;20232;-72
2021/12/30 03:02:06;;;;;;;1.63;0.90;;;;;;;2.61;92.47;97513.59;6256454;28;20211;-72
2021/12/30 03:05:09;;;;;;;1.10;0.80;;;;;;;2.62;92.69;97522.25;6232954;28;20236;-72
2021/12/30 03:08:11;;;;;;;0.60;0.60;;;;;;;2.62;92.42;97530.91;6255326;28;20734;-71
2021/12/30 03:11:14;;;;;;;3.03;0.80;;;;;;;2.65;92.43;97532.53;6255307;28;20235;-72
2021/12/30 03:14:16;;;;;;;1.27;0.67;;;;;;;2.61;92.30;97531.81;6254383;28;20243;-72
2021/12/30 03:17:18;;;;;;;1.70;0.60;;;;;;;2.59;92.11;97533.69;6253539;28;20372;-72
2021/12/30 03:20:20;;;;;;;1.83;0.70;;;;;;;2.59;92.35;97536.28;6253615;28;20698;-72
2021/12/30 03:23:22;;;;;;;2.73;0.80;;;;;;;2.64;92.37;97539.50;6255315;28;20723;-72
2021/12/30 03:26:25;;;;;;;1.50;0.67;;;;;;;2.65;92.49;97535.97;6254407;28;20221;-72
2021/12/30 03:29:26;;;;;;;1.87;0.70;;;;;;;2.63;92.30;97537.81;6252675;28;20226;-72
2021/12/30 03:32:29;;;;;;;4.67;0.87;;;;;;;2.66;92.28;97557.66;6254350;28;20242;-72
2021/12/30 03:35:31;;;;;;;2.97;0.60;;;;;;;2.67;92.16;97556.75;6250995;28;21075;-72
2021/12/30 03:38:37;;;;;;;0.43;0.43;;;;;;;2.68;92.46;97561.03;6252715;28;20251;-71
2021/12/30 03:41:39;;;;;;;1.80;0.87;;;;;;;2.69;92.63;97550.53;6254703;28;20310;-72
2021/12/30 03:44:41;;;;;;;1.40;0.83;;;;;;;2.73;92.39;97552.06;6254792;28;20240;-72
2021/12/30 03:47:46;;;;;;;1.17;0.67;;;;;;;2.75;92.12;97547.59;6245516;28;20773;-72
2021/12/30 03:50:51;;;;;;;3.00;0.70;;;;;;;2.76;92.29;97559.72;6229554;28;20698;-72
2021/12/30 03:53:56;;;;;;;1.27;0.70;;;;;;;2.79;92.30;97566.53;6235373;28;20273;-71
2021/12/30 03:56:58;;;;;;;3.60;0.80;;;;;;;2.80;92.32;97560.38;6253882;28;20241;-71
2021/12/30 04:00:00;;;;;;;3.10;0.90;;;;;;;2.81;92.39;97567.28;6255076;28;20244;-71
2021/12/30 04:03:02;;;;;;;1.10;0.60;;;;;;;2.81;92.29;97575.94;6249015;28;20275;-71
2021/12/30 04:06:05;;;;;;;0.90;0.80;;;;;;;2.84;92.09;97572.34;6247397;28;20784;-72
2021/12/30 04:09:07;;;;;;;1.53;0.60;;;;;;;2.85;92.68;97587.06;6251990;28;20271;-72
2021/12/30 04:12:09;;;;;;;1.77;0.70;;;;;;;2.86;92.28;97580.94;6253679;28;20248;-72
2021/12/30 04:15:11;;;;;;;3.10;0.50;;;;;;;2.87;91.71;97570.44;6254264;28;20214;-71
2021/12/30 04:18:13;;;;;;;2.30;0.60;;;;;;;2.90;92.38;97578.06;6253936;28;20240;-72
2021/12/30 04:21:18;;;;;;;3.00;0.70;;;;;;;2.91;92.30;97574.56;6253007;28;20316;-72
2021/12/30 04:24:20;;;;;;;0.70;0.60;;;;;;;2.91;92.20;97576.31;6253684;28;20213;-72
2021/12/30 04:27:22;;;;;;;4.03;0.80;;;;;;;2.92;92.37;97576.25;6251914;28;20219;-72
2021/12/30 04:30:26;;;;;;;1.87;0.80;;;;;;;2.95;92.53;97583.91;6252435;28;20229;-72
2021/12/30 04:33:28;;;;;;;2.10;0.90;;;;;;;2.96;92.07;97579.53;6237729;28;20224;-71
2021/12/30 04:36:30;;;;;;;1.70;0.60;;;;;;;2.97;92.03;97586.44;6216541;28;20237;-71
2021/12/30 04:39:32;;;;;;;2.50;0.97;;;;;;;2.99;92.47;97586.38;6238451;28;20710;-72
2021/12/30 04:42:34;;;;;;;1.07;0.80;;;;;;;3.01;92.27;97594.94;6252928;28;20221;-74
2021/12/30 04:45:36;;;;;;;2.70;0.70;;;;;;;3.03;92.21;97606.13;6251673;28;20725;-72
2021/12/30 04:48:39;;;;;;;1.40;0.80;;;;;;;3.04;92.24;97602.59;6234714;28;20235;-72
2021/12/30 04:51:41;;;;;;;0.80;0.50;;;;;;;3.04;92.10;97606.06;6203678;28;20234;-71
2021/12/30 04:54:43;;;;;;;1.87;0.60;;;;;;;3.06;92.02;97614.66;6245804;28;20223;-71
2021/12/30 04:57:45;;;;;;;1.30;0.60;;;;;;;3.08;92.34;97622.41;6252888;28;20820;-71
2021/12/30 05:00:47;;;;;;;0.90;0.70;;;;;;;3.09;92.56;97632.75;6252018;28;20239;-72
2021/12/30 05:03:49;;;;;;;2.70;0.70;;;;;;;3.10;92.22;97628.34;6233341;28;20241;-71
2021/12/30 05:06:51;;;;;;;1.10;0.77;;;;;;;3.12;92.06;97629.13;6253328;28;20725;-71
2021/12/30 05:09:53;;;;;;;0.67;0.57;;;;;;;3.12;92.67;97624.75;6251126;28;20229;-71
2021/12/30 05:12:55;;;;;;;1.17;0.70;;;;;;;3.14;92.13;97632.50;6250054;28;20232;-71
2021/12/30 05:15:57;;;;;;;1.23;0.53;;;;;;;3.16;92.62;97635.88;6252789;28;20719;-71
2021/12/30 05:18:59;;;;;;;1.07;0.60;;;;;;;3.17;92.63;97629.75;6252062;28;20226;-71
2021/12/30 05:22:02;;;;;;;1.50;1.17;;;;;;;3.19;92.33;97626.13;6250436;28;20301;-71
2021/12/30 05:25:05;;;;;;;1.30;1.00;;;;;;;3.23;92.35;97618.97;6253171;28;20242;-72
2021/12/30 05:28:07;;;;;;;1.43;1.10;;;;;;;3.24;92.54;97611.09;6240185;28;20245;-71
2021/12/30 05:31:09;;;;;;;1.03;0.90;;;;;;;3.23;92.21;97612.00;6237426;28;20272;-71
2021/12/30 05:34:11;;;;;;;1.37;0.93;;;;;;;3.21;92.16;97611.22;6229608;28;20700;-71
2021/12/30 05:37:13;;;;;;;0.80;0.70;;;;;;;3.20;92.53;97611.31;6229395;28;20266;-71
2021/12/30 05:40:18;;;;;;;1.13;0.70;;;;;;;3.17;92.37;97624.53;6232468;28;20235;-71
2021/12/30 05:43:20;;;;;;;1.03;0.63;;;;;;;3.18;92.43;97637.50;6249698;28;20235;-71
2021/12/30 05:46:22;;;;;;;2.27;1.07;;;;;;;3.18;92.39;97640.09;6251957;28;20773;-71
2021/12/30 05:49:24;;;;;;;3.43;1.03;;;;;;;3.19;92.65;97641.78;6228177;28;20725;-71
2021/12/30 05:52:27;;;;;;;2.27;1.00;;;;;;;3.39;92.50;97642.50;6227572;28;20560;-71
2021/12/30 05:55:30;;;;;;;1.10;1.00;;;;;;;3.44;92.67;97645.72;6235881;28;20322;-71
2021/12/30 05:58:32;;;;;;;3.33;1.10;;;;;;;3.40;92.11;97652.00;6235365;28;20324;-72
2021/12/30 06:01:34;;;;;;;1.40;0.70;;;;;;;3.40;92.58;97665.03;6255785;28;20234;-71
2021/12/30 06:04:37;;;;;;;1.43;0.90;;;;;;;3.41;92.51;97653.69;6237470;28;20238;-71
2021/12/30 06:07:40;;;;;;;1.27;0.90;;;;;;;3.42;92.22;97668.41;6255410;28;20274;-71
2021/12/30 06:10:43;;;;;;;1.13;0.80;;;;;;;3.42;92.48;97666.66;6251129;28;20321;-71
2021/12/30 06:13:45;;;;;;;3.70;0.90;;;;;;;3.44;92.75;97667.41;6256519;28;20287;-71
2021/12/30 06:16:47;;;;;;;4.73;0.93;;;;;;;3.54;92.30;97675.63;6256830;28;20404;-71
2021/12/30 06:19:50;;;;;;;3.67;1.07;;;;;;;3.62;92.65;97686.47;6253894;28;20244;-71
2021/12/30 06:22:52;;;;;;;1.77;0.90;;;;;;;3.68;92.87;97678.34;6255922;28;20282;-71
2021/12/30 06:25:53;;;;;;;2.50;0.93;;;;;;;3.83;92.88;97682.75;6255740;28;20790;-71
2021/12/30 06:28:56;;;;;;;2.40;0.60;;;;;;;3.88;92.90;97678.13;6255829;28;20226;-71
2021/12/30 06:31:58;;;;;;;1.17;0.50;;;;;;;4.27;92.56;97692.56;6256011;28;20266;-71
2021/12/30 06:35:00;;;;;;;3.03;1.00;;;;;;;4.92;93.33;97696.69;6213855;28;20227;-72
2021/12/30 06:38:03;;;;;;;3.03;0.80;;;;;;;4.86;93.24;97701.44;6226747;28;20269;-71
2021/12/30 06:41:05;;;;;;;1.27;0.80;;;;;;;4.81;92.92;97707.75;6245953;28;20226;-71
2021/12/30 06:44:07;;;;;;;1.13;0.60;;;;;;;4.75;93.14;97715.97;6256357;28;20238;-71
2021/12/30 06:47:09;;;;;;;43.87;21.23;;;;;;;4.73;92.57;97723.06;6250125;28;20274;-71
2021/12/30 06:50:14;;;;;;;21.30;12.80;;;;;;;4.74;92.87;97729.13;6229471;28;20647;-71
2021/12/30 06:53:15;;;;;;;14.97;8.90;;;;;;;4.84;93.67;97722.44;6233909;28;20219;-72
2021/12/30 06:56:18;;;;;;;13.90;9.77;;;;;;;4.87;93.65;97724.06;6253462;28;20277;-71
2021/12/30 06:59:21;;;;;;;6.60;5.83;;;;;;;4.86;93.46;97731.06;6252978;28;20231;-70
2021/12/30 07:02:23;;;;;;;6.23;5.27;;;;;;;5.10;93.95;97747.94;6254541;28;20230;-71
2021/12/30 07:05:26;;;;;;;7.03;6.30;;;;;;;5.27;93.21;97748.78;6249207;28;20231;-70
2021/12/30 07:08:27;;;;;;;5.60;5.10;;;;;;;5.25;93.78;97755.84;6254956;28;20226;-71
2021/12/30 07:11:29;;;;;;;4.00;3.43;;;;;;;5.30;93.58;97757.25;6251529;28;20234;-71
2021/12/30 07:14:31;;;;;;;3.93;3.40;;;;;;;5.44;93.77;97765.16;6255142;28;20235;-71
2021/12/30 07:17:34;;;;;;;3.10;2.80;;;;;;;5.55;93.30;97761.91;6253757;28;20230;-71
2021/12/30 07:20:36;;;;;;;2.57;2.37;;;;;;;5.70;93.30;97774.09;6256756;28;20239;-71
2021/12/30 07:23:38;;;;;;;1.40;1.20;;;;;;;6.12;93.46;97780.34;6254084;28;20725;-71
2021/12/30 07:26:40;;;;;;;1.00;0.90;;;;;;;6.39;93.83;97775.22;6252622;28;20717;-71
2021/12/30 07:29:42;;;;;;;3.53;2.53;;;;;;;6.48;93.89;97785.97;6253750;28;20231;-71
2021/12/30 07:32:44;;;;;;;3.37;1.70;;;;;;;6.59;93.76;97795.75;6249233;28;20223;-71
2021/12/30 07:35:46;;;;;;;1.20;1.10;;;;;;;6.86;93.92;97803.69;6210555;28;20239;-71
2021/12/30 07:38:50;;;;;;;1.37;1.17;;;;;;;7.07;94.06;97810.19;6226802;28;20757;-71
2021/12/30 07:41:52;;;;;;;2.20;1.00;;;;;;;7.26;94.44;97815.94;6253491;28;20265;-71
2021/12/30 07:44:58;;;;;;;1.00;0.90;;;;;;;7.41;94.24;97814.94;6254637;28;20294;-71
2021/12/30 07:48:00;;;;;;;2.17;1.00;;;;;;;7.43;93.78;97814.84;6241886;28;20235;-71
2021/12/30 07:51:04;;;;;;;1.20;1.10;;;;;;;7.54;94.06;97808.88;6228739;28;20222;-71
2021/12/30 07:54:06;;;;;;;1.00;0.90;;;;;;;7.60;94.20;97811.09;6251554;28;20230;-71
2021/12/30 07:57:08;;;;;;;1.73;1.20;;;;;;;7.64;94.05;97812.59;6252553;28;20548;-71
2021/12/30 08:00:14;;;;;;;1.30;0.90;;;;;;;7.69;93.48;97831.50;6253374;28;20225;-71
2021/12/30 08:03:16;;;;;;;0.80;0.80;;;;;;;7.76;93.98;97817.03;6247172;28;20697;-71
2021/12/30 08:06:18;;;;;;;1.27;1.13;;;;;;;7.84;93.73;97809.47;6239174;28;20713;-71
2021/12/30 08:09:20;;;;;;;1.33;1.10;;;;;;;7.91;93.37;97810.72;6253187;28;20203;-71
2021/12/30 08:12:23;;;;;;;1.97;1.00;;;;;;;7.99;93.16;97784.78;6215441;28;20226;-71
2021/12/30 08:15:25;;;;;;;0.80;0.80;;;;;;;8.06;93.41;97779.97;6251832;28;20233;-71
2021/12/30 08:18:27;;;;;;;1.07;0.60;;;;;;;8.07;93.22;97771.97;6251430;28;20241;-71
2021/12/30 08:21:29;;;;;;;0.70;0.70;;;;;;;8.09;92.84;97772.69;6253184;28;20228;-71
2021/12/30 08:24:31;;;;;;;1.30;0.77;;;;;;;8.21;93.06;97778.88;6250907;28;20253;-71
2021/12/30 08:27:47;;;;;;;0.97;0.80;;;;;;;8.35;90.50;97796.38;6229346;28;20224;-71
2021/12/30 08:30:49;;;;;;;0.87;0.83;;;;;;;8.52;89.94;97789.00;6216991;28;20390;-72
2021/12/30 08:33:51;;;;;;;1.90;0.70;;;;;;;8.59;88.47;97768.34;6220782;28;20234;-71
2021/12/30 08:36:53;;;;;;;0.80;0.70;;;;;;;8.72;88.79;97778.84;6221494;28;20237;-71
2021/12/30 08:39:55;;;;;;;0.80;0.40;;;;;;;8.79;88.05;97785.34;6227353;28;20240;-71
2021/12/30 08:42:58;;;;;;;0.63;0.57;;;;;;;8.88;87.87;97784.72;6250991;28;20238;-71
2021/12/30 08:46:00;;;;;;;0.93;0.80;;;;;;;8.95;87.12;97785.09;6251438;28;20234;-71
2021/12/30 08:49:02;;;;;;;1.63;0.70;;;;;;;9.09;85.31;97783.13;6230996;28;20381;-71
2021/12/30 08:52:04;;;;;;;0.63;0.60;;;;;;;9.20;84.18;97792.88;6227630;28;20290;-71
2021/12/30 08:55:07;;;;;;;1.17;0.70;;;;;;;9.31;83.93;97790.31;6241965;28;20227;-71
2021/12/30 08:58:09;;;;;;;1.07;0.70;;;;;;;9.33;82.69;97813.91;6252523;28;20268;-71
2021/12/30 09:01:13;;;;;;;3.43;0.90;;;;;;;9.46;79.74;97805.00;6236857;28;20232;-71
2021/12/30 09:04:15;;;;;;;2.50;1.33;;;;;;;9.60;77.50;97807.44;6216048;28;20269;-71
2021/12/30 09:07:18;;;;;;;1.43;0.80;;;;;;;9.71;77.32;97811.91;6220511;28;20232;-71
2021/12/30 09:10:21;;;;;;;4.07;1.37;;;;;;;9.76;76.55;97808.94;6216697;28;20322;-71
2021/12/30 09:13:23;;;;;;;1.83;1.10;;;;;;;9.87;77.49;97809.81;6225630;28;20241;-71
2021/12/30 09:16:25;;;;;;;1.23;1.00;;;;;;;9.93;77.40;97813.78;6212273;28;20224;-72
2021/12/30 09:19:27;;;;;;;2.83;1.00;;;;;;;10.16;74.10;97798.84;6215951;28;20227;-71
2021/12/30 09:22:29;;;;;;;2.23;1.03;;;;;;;10.38;74.37;97806.84;6228043;28;20627;-71
2021/12/30 09:25:32;;;;;;;2.60;1.37;;;;;;;10.48;73.39;97809.59;6242464;28;20284;-71
2021/12/30 09:28:34;;;;;;;1.30;0.90;;;;;;;10.67;73.77;97810.69;6215003;28;20602;-71
2021/12/30 09:31:44;;;;;;;1.03;0.70;;;;;;;10.85;74.62;97824.22;6220409;28;20237;-71
2021/12/30 09:34:46;;;;;;;1.43;0.90;;;;;;;10.91;75.32;97807.03;6237439;28;20716;-71
2021/12/30 09:37:48;;;;;;;1.03;0.93;;;;;;;10.79;74.46;97816.78;6251882;28;20267;-71
2021/12/30 09:40:50;;;;;;;1.47;0.90;;;;;;;10.67;73.23;97808.03;6227246;28;20600;-71
2021/12/30 09:43:52;;;;;;;1.50;0.97;;;;;;;10.65;73.95;97815.22;6236706;28;20740;-71
2021/12/30 09:46:55;;;;;;;2.57;1.10;;;;;;;10.61;74.57;97820.84;6233497;28;20608;-71
2021/12/30 09:49:57;;;;;;;0.87;0.80;;;;;;;10.66;74.00;97813.44;6221741;28;20702;-71
2021/12/30 09:53:00;;;;;;;0.90;0.70;;;;;;;10.77;74.87;97818.72;6236736;28;20223;-71
2021/12/30 09:56:04;;;;;;;1.50;0.93;;;;;;;10.96;74.47;97824.22;6247157;28;20575;-71
2021/12/30 09:59:08;;;;;;;1.80;1.00;;;;;;;10.99;74.73;97831.03;6205880;28;20236;-71
2021/12/30 10:02:10;;;;;;;1.10;0.90;;;;;;;11.00;75.33;97832.72;6209890;28;20229;-71
2021/12/30 10:05:19;;;;;;;1.63;0.90;;;;;;;11.03;74.50;97833.31;6219573;28;20593;-71
2021/12/30 10:08:26;;;;;;;1.27;0.87;;;;;;;11.07;74.81;97824.19;6220750;28;20230;-71
2021/12/30 10:11:28;;;;;;;0.97;0.80;;;;;;;11.01;75.42;97818.56;6238623;28;20356;-71
2021/12/30 10:14:36;;;;;;;3.23;1.00;;;;;;;11.16;74.79;97819.97;6217830;28;20237;-71
2021/12/30 10:17:38;;;;;;;2.10;0.93;;;;;;;11.27;75.27;97822.59;6218415;28;20557;-71
2021/12/30 10:20:42;;;;;;;1.57;0.87;;;;;;;11.27;75.34;97819.13;6237105;28;20305;-71
2021/12/30 10:23:47;;;;;;;0.87;0.80;;;;;;;11.17;74.62;97841.97;6216142;28;20619;-71
2021/12/30 10:26:58;;;;;;;1.17;0.80;;;;;;;11.20;74.66;97839.88;6231973;28;20398;-71
2021/12/30 10:30:01;;;;;;;0.80;0.80;;;;;;;11.38;74.59;97834.91;6242979;28;20275;-71
2021/12/30 10:33:16;;;;;;;1.33;1.00;;;;;;;11.64;73.88;97835.44;6220715;28;20712;-72
2021/12/30 10:36:40;;;;;;;1.47;0.90;;;;;;;11.88;73.22;97838.72;6192081;28;20223;-71
2021/12/30 10:39:42;;;;;;;4.60;1.30;;;;;;;12.06;73.63;97831.09;6222625;28;20221;-71
2021/12/30 10:42:44;;;;;;;2.70;1.00;;;;;;;12.02;73.71;97835.78;6242683;28;20303;-71
2021/12/30 10:46:04;;;;;;;1.73;1.40;;;;;;;11.71;73.08;97832.16;6227343;28;20233;-71
2021/12/30 10:49:11;;;;;;;1.23;1.10;;;;;;;11.62;74.33;97843.50;6216457;28;20234;-71
2021/12/30 10:52:15;;;;;;;4.07;1.30;;;;;;;11.62;74.71;97843.50;6232790;28;20451;-71
2021/12/30 10:55:18;;;;;;;6.30;1.70;;;;;;;11.60;75.03;97832.22;6241578;28;20237;-71
2021/12/30 10:58:24;;;;;;;2.17;1.43;;;;;;;11.52;75.42;97839.94;6223267;28;20375;-71
2021/12/30 11:01:26;;;;;;;3.23;1.40;;;;;;;11.63;75.61;97829.31;6213921;28;20259;-71
2021/12/30 11:04:40;;;;;;;1.60;1.40;;;;;;;11.62;75.57;97817.06;6230840;28;20223;-71
2021/12/30 11:07:50;;;;;;;4.47;1.37;;;;;;;11.74;75.01;97823.16;6209912;28;20234;-71
2021/12/30 11:10:52;;;;;;;2.03;1.13;;;;;;;11.77;75.13;97817.66;6255085;28;20578;-71
2021/12/30 11:14:07;;;;;;;3.60;1.17;;;;;;;11.98;75.00;97815.03;6252197;28;20254;-71
2021/12/30 11:17:14;;;;;;;4.70;1.20;;;;;;;12.04;74.89;97812.69;6227386;28;20961;-71
2021/12/30 11:20:23;;;;;;;0.93;0.77;;;;;;;12.03;74.79;97833.97;6240344;28;20231;-71
2021/12/30 11:23:25;;;;;;;3.00;1.27;;;;;;;11.86;74.47;97827.47;6221341;28;20243;-71
2021/12/30 11:26:27;;;;;;;1.53;0.93;;;;;;;11.76;75.04;97831.84;6225944;28;20221;-71
2021/12/30 11:29:30;;;;;;;3.63;1.10;;;;;;;11.66;74.70;97820.31;6233069;28;20304;-71
2021/12/30 11:32:34;;;;;;;1.80;1.00;;;;;;;11.74;74.48;97823.16;6253757;28;20794;-71
2021/12/30 11:35:36;;;;;;;4.23;1.13;;;;;;;11.96;73.93;97828.38;6218074;28;20265;-71
2021/12/30 11:38:38;;;;;;;2.07;0.90;;;;;;;12.24;73.63;97818.09;6220386;28;20239;-71
2021/12/30 11:41:44;;;;;;;1.47;0.90;;;;;;;12.45;72.67;97822.41;6222125;28;20235;-71
2021/12/30 11:44:49;;;;;;;1.03;0.80;;;;;;;12.66;71.88;97827.69;6231195;28;20242;-71
2021/12/30 11:47:52;;;;;;;1.43;0.77;;;;;;;12.81;70.85;97834.28;6221483;28;20705;-71
2021/12/30 11:51:06;;;;;;;1.00;0.70;;;;;;;12.93;69.75;97819.97;6227527;28;20231;-71
2021/12/30 11:54:31;;;;;;;1.70;0.90;;;;;;;13.02;70.66;97825.44;6222721;28;20705;-71
2021/12/30 11:57:36;;;;;;;2.23;0.97;;;;;;;13.08;69.68;97823.06;6223332;28;20224;-71
2021/12/30 12:00:39;;;;;;;1.13;0.60;;;;;;;13.16;69.70;97833.88;6233071;28;20238;-71
2021/12/30 12:03:53;;;;;;;2.73;0.93;;;;;;;13.18;68.66;97829.28;6245464;28;20234;-71
2021/12/30 12:07:10;;;;;;;0.90;0.67;;;;;;;13.35;69.06;97826.94;6251330;28;20226;-74
2021/12/30 12:10:17;;;;;;;3.37;1.23;;;;;;;13.40;67.50;97822.91;6251282;28;20705;-71
2021/12/30 12:13:47;;;;;;;1.57;0.60;;;;;;;13.54;67.29;97816.38;6253995;28;20234;-71
2021/12/30 12:16:55;;;;;;;1.30;0.70;;;;;;;13.67;67.16;97825.72;6250401;28;20235;-71
2021/12/30 12:19:58;;;;;;;0.80;0.63;;;;;;;14.08;66.72;97836.19;6252861;28;20232;-71
2021/12/30 12:23:36;;;;;;;0.43;0.43;;;;;;;14.55;64.56;97837.13;6252473;28;20597;-70
2021/12/30 12:26:40;;;;;;;2.00;0.73;;;;;;;14.83;63.60;97830.03;6235436;28;20223;-70
2021/12/30 12:29:42;;;;;;;0.60;0.60;;;;;;;14.84;63.31;97824.59;6220962;28;20224;-70
2021/12/30 12:32:44;;;;;;;1.60;0.63;;;;;;;14.75;64.25;97828.94;6244893;28;20716;-70
2021/12/30 12:35:46;;;;;;;2.60;0.63;;;;;;;14.53;63.78;97839.09;6241181;28;20640;-70
2021/12/30 12:38:50;;;;;;;2.50;0.80;;;;;;;14.14;64.79;97849.75;6257109;28;20250;-70
2021/12/30 12:41:52;;;;;;;0.77;0.60;;;;;;;14.14;65.29;97835.63;6254571;28;20210;-70
2021/12/30 12:45:22;;;;;;;1.73;0.67;;;;;;;14.08;65.51;97839.66;6245868;28;20215;-70
2021/12/30 12:48:30;;;;;;;0.57;0.53;;;;;;;13.94;65.96;97829.50;6199164;28;20695;-70
2021/12/30 12:51:35;;;;;;;0.87;0.50;;;;;;;13.72;66.29;97822.66;6211022;28;20231;-70
2021/12/30 12:54:49;;;;;;;1.97;0.80;;;;;;;13.78;65.87;97821.25;6230371;28;20228;-70
2021/12/30 12:57:51;;;;;;;1.23;0.67;;;;;;;13.84;65.72;97816.25;6202113;28;20221;-70
2021/12/30 13:01:01;;;;;;;1.87;0.70;;;;;;;13.85;65.99;97809.97;6210707;28;20226;-70
2021/12/30 13:04:07;;;;;;;1.40;0.57;;;;;;;13.73;65.94;97831.47;6217431;28;20249;-70
2021/12/30 13:07:15;;;;;;;0.80;0.63;;;;;;;13.56;66.49;97827.69;6213241;28;20278;-70
2021/12/30 13:10:20;;;;;;;0.60;0.60;;;;;;;13.39;68.45;97837.13;6222348;28;20229;-72
2021/12/30 13:13:35;;;;;;;0.70;0.50;;;;;;;13.36;68.21;97839.22;6227753;28;20252;-72
2021/12/30 13:16:40;;;;;;;1.57;0.60;;;;;;;13.27;68.77;97852.34;6241277;28;20369;-72
2021/12/30 13:19:47;;;;;;;0.50;0.50;;;;;;;13.00;70.24;97852.06;6256668;28;20242;-73
2021/12/30 13:22:50;;;;;;;0.77;0.50;;;;;;;12.93;70.39;97861.53;6237277;28;20235;-70
2021/12/30 13:26:03;;;;;;;0.97;0.70;;;;;;;12.99;70.52;97860.13;6223925;28;20677;-71
2021/12/30 13:29:06;;;;;;;1.40;0.80;;;;;;;12.86;71.41;97844.50;6230764;28;20363;-71
2021/12/30 13:32:16;;;;;;;1.10;0.77;;;;;;;12.94;70.99;97850.78;6206523;28;20247;-72
2021/12/30 13:35:27;;;;;;;0.50;0.50;;;;;;;12.91;71.76;97848.41;6256290;28;20231;-71
2021/12/30 13:38:29;;;;;;;0.80;0.73;;;;;;;12.84;71.56;97849.91;6255769;28;20234;-72
2021/12/30 13:41:31;;;;;;;1.50;0.53;;;;;;;12.79;72.52;97856.56;6254765;28;20234;-72
2021/12/30 13:44:38;;;;;;;0.73;0.60;;;;;;;12.69;73.38;97861.81;6255075;28;20286;-73
2021/12/30 13:47:40;;;;;;;1.13;0.70;;;;;;;12.51;74.09;97861.59;6247709;28;20306;-72
2021/12/30 13:50:51;;;;;;;1.53;0.63;;;;;;;12.25;74.94;97870.91;6231559;28;20218;-72
2021/12/30 13:53:54;;;;;;;1.07;0.60;;;;;;;12.17;75.54;97871.56;6235351;28;20235;-72
2021/12/30 13:56:56;;;;;;;0.57;0.57;;;;;;;12.06;76.27;97868.13;6256252;28;20283;-72
2021/12/30 13:59:59;;;;;;;0.70;0.60;;;;;;;11.94;77.02;97859.41;6257483;28;20370;-73
2021/12/30 14:03:07;;;;;;;0.40;0.40;;;;;;;11.84;77.55;97866.41;6254167;28;20224;-72
2021/12/30 14:06:17;;;;;;;0.70;0.70;;;;;;;11.71;78.58;97873.63;6253111;28;20250;-72
2021/12/30 14:09:19;;;;;;;0.73;0.60;;;;;;;11.61;79.00;97878.81;6256594;28;20241;-72
2021/12/30 14:12:21;;;;;;;0.47;0.47;;;;;;;11.59;79.51;97877.25;6255199;28;20698;-72
2021/12/30 14:15:23;;;;;;;0.73;0.60;;;;;;;11.54;79.75;97890.88;6256340;28;20226;-72
2021/12/30 14:18:31;;;;;;;1.70;0.70;;;;;;;11.59;79.71;97891.31;6254202;28;20694;-73
2021/12/30 14:21:36;;;;;;;0.30;0.30;;;;;;;11.61;79.54;97889.41;6253587;28;20241;-72
2021/12/30 14:24:40;;;;;;;1.60;0.50;;;;;;;11.59;79.68;97880.75;6254489;28;20236;-72
2021/12/30 14:27:42;;;;;;;0.60;0.50;;;;;;;11.51;80.10;97883.19;6238904;28;20226;-72
2021/12/30 14:30:44;;;;;;;0.53;0.47;;;;;;;11.45;80.52;97879.25;6216245;28;20573;-72
2021/12/30 14:33:47;;;;;;;0.80;0.50;;;;;;;11.38;81.13;97872.75;6221803;28;21574;-72